sensor_id;sensor_type;location;lat;lon;timestamp;P1;durP1;ratioP1;P2;durP2;ratioP2
67737;SDS011;54534;43.612;1.572;2022-07-29T00:00:47;3.53;;;1.57;;
67737;SDS011;54534;43.612;1.572;2022-07-29T00:03:12;2.93;;;1.60;;
67737;SDS011;54534;43.612;1.572;2022-07-29T00:05:39;2.30;;;1.63;;
67737;SDS011;54534;43.612;1.572;2022-07-29T00:08:06;1.60;;;1.50;;
67737;SDS011;54534;43.612;1.572;2022-07-29T00:10:32;2.33;;;1.60;;
67737;SDS011;54534;43.612;1.572;2022-07-29T00:12:58;2.33;;;1.60;;
67737;SDS011;54534;43.612;1.572;2022-07-29T00:15:23;1.93;;;1.53;;
67737;SDS011;54534;43.612;1.572;2022-07-29T00:17:49;1.87;;;1.40;;
67737;SDS011;54534;43.612;1.572;2022-07-29T00:20:14;2.03;;;1.60;;
67737;SDS011;54534;43.612;1.572;2022-07-29T00:22:40;1.60;;;1.50;;
67737;SDS011;54534;43.612;1.572;2022-07-29T00:25:06;1.83;;;1.40;;
67737;SDS011;54534;43.612;1.572;2022-07-29T00:27:33;2.77;;;1.43;;
67737;SDS011;54534;43.612;1.572;2022-07-29T00:29:59;2.50;;;1.63;;
67737;SDS011;54534;43.612;1.572;2022-07-29T00:32:24;1.97;;;1.47;;
67737;SDS011;54534;43.612;1.572;2022-07-29T00:34:50;3.03;;;1.60;;
67737;SDS011;54534;43.612;1.572;2022-07-29T00:37:34;1.50;;;1.13;;
67737;SDS011;54534;43.612;1.572;2022-07-29T00:39:59;1.63;;;1.33;;
67737;SDS011;54534;43.612;1.572;2022-07-29T00:42:25;1.50;;;1.40;;
67737;SDS011;54534;43.612;1.572;2022-07-29T00:44:50;1.67;;;1.43;;
67737;SDS011;54534;43.612;1.572;2022-07-29T00:47:16;2.43;;;1.50;;
67737;SDS011;54534;43.612;1.572;2022-07-29T00:49:41;5.60;;;1.23;;
67737;SDS011;54534;43.612;1.572;2022-07-29T00:52:08;2.60;;;1.50;;
67737;SDS011;54534;43.612;1.572;2022-07-29T00:54:35;4.80;;;1.70;;
67737;SDS011;54534;43.612;1.572;2022-07-29T00:57:01;3.20;;;1.53;;
67737;SDS011;54534;43.612;1.572;2022-07-29T00:59:27;2.10;;;1.30;;
67737;SDS011;54534;43.612;1.572;2022-07-29T01:01:53;1.50;;;1.20;;
67737;SDS011;54534;43.612;1.572;2022-07-29T01:04:19;1.37;;;1.20;;
67737;SDS011;54534;43.612;1.572;2022-07-29T01:06:46;2.47;;;1.60;;
67737;SDS011;54534;43.612;1.572;2022-07-29T01:09:13;2.27;;;1.60;;
67737;SDS011;54534;43.612;1.572;2022-07-29T01:11:41;2.23;;;1.57;;
67737;SDS011;54534;43.612;1.572;2022-07-29T01:14:07;2.57;;;1.33;;
67737;SDS011;54534;43.612;1.572;2022-07-29T01:30:55;1.60;;;1.20;;
67737;SDS011;54534;43.612;1.572;2022-07-29T01:33:22;3.77;;;1.40;;
67737;SDS011;54534;43.612;1.572;2022-07-29T01:36:13;1.97;;;1.30;;
67737;SDS011;54534;43.612;1.572;2022-07-29T01:38:42;1.40;;;1.30;;
67737;SDS011;54534;43.612;1.572;2022-07-29T01:41:14;2.20;;;1.40;;
67737;SDS011;54534;43.612;1.572;2022-07-29T01:43:43;2.35;;;1.65;;
67737;SDS011;54534;43.612;1.572;2022-07-29T01:46:14;2.10;;;1.40;;
67737;SDS011;54534;43.612;1.572;2022-07-29T01:48:50;2.00;;;1.40;;
67737;SDS011;54534;43.612;1.572;2022-07-29T01:51:54;3.20;;;1.47;;
67737;SDS011;54534;43.612;1.572;2022-07-29T01:54:21;3.33;;;1.30;;
67737;SDS011;54534;43.612;1.572;2022-07-29T01:56:51;1.73;;;1.40;;
67737;SDS011;54534;43.612;1.572;2022-07-29T01:59:21;2.07;;;1.30;;
67737;SDS011;54534;43.612;1.572;2022-07-29T02:01:48;3.37;;;1.47;;
67737;SDS011;54534;43.612;1.572;2022-07-29T02:04:17;2.27;;;1.30;;
67737;SDS011;54534;43.612;1.572;2022-07-29T02:06:44;2.77;;;1.43;;
67737;SDS011;54534;43.612;1.572;2022-07-29T02:09:12;4.00;;;1.40;;
67737;SDS011;54534;43.612;1.572;2022-07-29T02:11:40;1.67;;;1.50;;
67737;SDS011;54534;43.612;1.572;2022-07-29T02:14:10;2.17;;;1.30;;
67737;SDS011;54534;43.612;1.572;2022-07-29T02:16:38;1.83;;;1.30;;
67737;SDS011;54534;43.612;1.572;2022-07-29T02:19:05;2.07;;;1.50;;
67737;SDS011;54534;43.612;1.572;2022-07-29T02:21:33;5.03;;;1.50;;
67737;SDS011;54534;43.612;1.572;2022-07-29T02:24:01;3.30;;;1.20;;
67737;SDS011;54534;43.612;1.572;2022-07-29T02:26:29;5.47;;;1.47;;
67737;SDS011;54534;43.612;1.572;2022-07-29T02:28:56;3.40;;;1.40;;
67737;SDS011;54534;43.612;1.572;2022-07-29T02:31:24;3.10;;;1.60;;
67737;SDS011;54534;43.612;1.572;2022-07-29T02:33:53;4.83;;;1.60;;
67737;SDS011;54534;43.612;1.572;2022-07-29T02:36:21;1.20;;;1.10;;
67737;SDS011;54534;43.612;1.572;2022-07-29T02:38:48;1.58;;;1.42;;
67737;SDS011;54534;43.612;1.572;2022-07-29T02:41:16;2.77;;;1.57;;
67737;SDS011;54534;43.612;1.572;2022-07-29T02:46:13;2.40;;;1.63;;
67737;SDS011;54534;43.612;1.572;2022-07-29T02:48:44;2.83;;;1.47;;
67737;SDS011;54534;43.612;1.572;2022-07-29T02:51:25;3.47;;;1.40;;
67737;SDS011;54534;43.612;1.572;2022-07-29T02:53:57;2.40;;;1.37;;
67737;SDS011;54534;43.612;1.572;2022-07-29T02:56:28;1.67;;;1.20;;
67737;SDS011;54534;43.612;1.572;2022-07-29T02:59:00;2.67;;;1.20;;
67737;SDS011;54534;43.612;1.572;2022-07-29T03:01:32;2.77;;;1.20;;
67737;SDS011;54534;43.612;1.572;2022-07-29T03:04:00;3.03;;;1.70;;
67737;SDS011;54534;43.612;1.572;2022-07-29T03:06:28;2.47;;;1.57;;
67737;SDS011;54534;43.612;1.572;2022-07-29T03:08:53;3.93;;;1.30;;
67737;SDS011;54534;43.612;1.572;2022-07-29T03:11:20;1.70;;;1.30;;
67737;SDS011;54534;43.612;1.572;2022-07-29T03:13:46;3.33;;;1.77;;
67737;SDS011;54534;43.612;1.572;2022-07-29T03:16:12;2.17;;;1.43;;
67737;SDS011;54534;43.612;1.572;2022-07-29T03:18:39;3.63;;;1.47;;
67737;SDS011;54534;43.612;1.572;2022-07-29T03:21:05;4.03;;;1.27;;
67737;SDS011;54534;43.612;1.572;2022-07-29T03:23:31;2.10;;;1.30;;
67737;SDS011;54534;43.612;1.572;2022-07-29T03:25:56;1.57;;;1.17;;
67737;SDS011;54534;43.612;1.572;2022-07-29T03:28:22;2.70;;;1.30;;
67737;SDS011;54534;43.612;1.572;2022-07-29T03:30:48;1.93;;;1.50;;
67737;SDS011;54534;43.612;1.572;2022-07-29T03:33:13;2.10;;;1.00;;
67737;SDS011;54534;43.612;1.572;2022-07-29T03:35:39;1.50;;;1.20;;
67737;SDS011;54534;43.612;1.572;2022-07-29T03:38:05;1.90;;;1.40;;
67737;SDS011;54534;43.612;1.572;2022-07-29T03:40:31;2.20;;;1.40;;
67737;SDS011;54534;43.612;1.572;2022-07-29T03:43:00;1.63;;;1.30;;
67737;SDS011;54534;43.612;1.572;2022-07-29T03:45:27;2.80;;;1.40;;
67737;SDS011;54534;43.612;1.572;2022-07-29T03:48:04;2.30;;;1.07;;
67737;SDS011;54534;43.612;1.572;2022-07-29T03:50:32;3.37;;;1.47;;
67737;SDS011;54534;43.612;1.572;2022-07-29T03:52:58;4.20;;;1.23;;
67737;SDS011;54534;43.612;1.572;2022-07-29T03:55:25;3.27;;;1.27;;
67737;SDS011;54534;43.612;1.572;2022-07-29T03:57:53;3.03;;;1.90;;
67737;SDS011;54534;43.612;1.572;2022-07-29T04:00:22;2.77;;;1.10;;
67737;SDS011;54534;43.612;1.572;2022-07-29T04:02:49;2.47;;;1.30;;
67737;SDS011;54534;43.612;1.572;2022-07-29T04:05:14;2.37;;;1.63;;
67737;SDS011;54534;43.612;1.572;2022-07-29T04:07:43;3.77;;;1.60;;
67737;SDS011;54534;43.612;1.572;2022-07-29T04:10:12;2.27;;;1.43;;
67737;SDS011;54534;43.612;1.572;2022-07-29T04:12:38;4.13;;;1.30;;
67737;SDS011;54534;43.612;1.572;2022-07-29T04:15:04;2.67;;;1.37;;
67737;SDS011;54534;43.612;1.572;2022-07-29T04:17:29;3.00;;;1.50;;
67737;SDS011;54534;43.612;1.572;2022-07-29T04:19:55;1.70;;;1.17;;
67737;SDS011;54534;43.612;1.572;2022-07-29T04:22:20;3.23;;;1.30;;
67737;SDS011;54534;43.612;1.572;2022-07-29T04:24:46;2.07;;;1.07;;
67737;SDS011;54534;43.612;1.572;2022-07-29T04:27:11;1.97;;;1.27;;
67737;SDS011;54534;43.612;1.572;2022-07-29T04:29:37;3.40;;;1.53;;
67737;SDS011;54534;43.612;1.572;2022-07-29T04:32:02;3.50;;;1.33;;
67737;SDS011;54534;43.612;1.572;2022-07-29T04:34:28;2.77;;;1.63;;
67737;SDS011;54534;43.612;1.572;2022-07-29T04:36:53;2.10;;;1.30;;
67737;SDS011;54534;43.612;1.572;2022-07-29T04:39:18;2.43;;;1.30;;
67737;SDS011;54534;43.612;1.572;2022-07-29T04:41:44;2.17;;;1.13;;
67737;SDS011;54534;43.612;1.572;2022-07-29T04:44:09;3.37;;;1.17;;
67737;SDS011;54534;43.612;1.572;2022-07-29T04:46:35;1.80;;;1.20;;
67737;SDS011;54534;43.612;1.572;2022-07-29T04:49:00;2.60;;;1.40;;
67737;SDS011;54534;43.612;1.572;2022-07-29T04:51:26;1.77;;;1.27;;
67737;SDS011;54534;43.612;1.572;2022-07-29T04:53:52;3.90;;;1.20;;
67737;SDS011;54534;43.612;1.572;2022-07-29T04:56:17;3.43;;;1.50;;
67737;SDS011;54534;43.612;1.572;2022-07-29T04:58:42;5.53;;;1.50;;
67737;SDS011;54534;43.612;1.572;2022-07-29T05:01:08;3.10;;;1.80;;
67737;SDS011;54534;43.612;1.572;2022-07-29T05:03:33;3.43;;;1.60;;
67737;SDS011;54534;43.612;1.572;2022-07-29T05:05:59;5.60;;;1.60;;
67737;SDS011;54534;43.612;1.572;2022-07-29T05:08:24;2.87;;;2.13;;
67737;SDS011;54534;43.612;1.572;2022-07-29T05:10:49;6.97;;;2.17;;
67737;SDS011;54534;43.612;1.572;2022-07-29T05:13:15;4.53;;;1.93;;
67737;SDS011;54534;43.612;1.572;2022-07-29T05:15:41;6.67;;;1.50;;
67737;SDS011;54534;43.612;1.572;2022-07-29T05:18:06;4.13;;;1.73;;
67737;SDS011;54534;43.612;1.572;2022-07-29T05:20:31;5.17;;;1.70;;
67737;SDS011;54534;43.612;1.572;2022-07-29T05:22:59;4.43;;;1.70;;
67737;SDS011;54534;43.612;1.572;2022-07-29T05:25:26;4.67;;;1.60;;
67737;SDS011;54534;43.612;1.572;2022-07-29T05:27:53;6.00;;;2.07;;
67737;SDS011;54534;43.612;1.572;2022-07-29T05:30:19;10.37;;;2.20;;
67737;SDS011;54534;43.612;1.572;2022-07-29T05:32:45;8.80;;;2.20;;
67737;SDS011;54534;43.612;1.572;2022-07-29T05:35:11;10.20;;;2.07;;
67737;SDS011;54534;43.612;1.572;2022-07-29T05:37:36;6.70;;;1.93;;
67737;SDS011;54534;43.612;1.572;2022-07-29T05:40:03;9.40;;;2.37;;
67737;SDS011;54534;43.612;1.572;2022-07-29T05:42:28;5.53;;;2.00;;
67737;SDS011;54534;43.612;1.572;2022-07-29T05:44:54;4.40;;;1.63;;
67737;SDS011;54534;43.612;1.572;2022-07-29T05:47:20;4.10;;;2.00;;
67737;SDS011;54534;43.612;1.572;2022-07-29T05:49:45;10.07;;;1.80;;
67737;SDS011;54534;43.612;1.572;2022-07-29T05:52:11;6.93;;;2.10;;
67737;SDS011;54534;43.612;1.572;2022-07-29T05:54:38;14.20;;;2.63;;
67737;SDS011;54534;43.612;1.572;2022-07-29T05:57:03;9.27;;;2.20;;
67737;SDS011;54534;43.612;1.572;2022-07-29T05:59:29;8.90;;;2.50;;
67737;SDS011;54534;43.612;1.572;2022-07-29T06:01:54;5.80;;;2.67;;
67737;SDS011;54534;43.612;1.572;2022-07-29T06:04:20;6.47;;;2.60;;
67737;SDS011;54534;43.612;1.572;2022-07-29T06:06:45;7.17;;;2.60;;
67737;SDS011;54534;43.612;1.572;2022-07-29T06:09:11;5.60;;;2.07;;
67737;SDS011;54534;43.612;1.572;2022-07-29T06:11:36;9.83;;;2.37;;
67737;SDS011;54534;43.612;1.572;2022-07-29T06:14:01;16.97;;;2.67;;
67737;SDS011;54534;43.612;1.572;2022-07-29T06:16:28;12.03;;;2.50;;
67737;SDS011;54534;43.612;1.572;2022-07-29T06:18:53;10.13;;;3.03;;
67737;SDS011;54534;43.612;1.572;2022-07-29T06:21:19;5.47;;;1.83;;
67737;SDS011;54534;43.612;1.572;2022-07-29T06:23:44;10.03;;;2.07;;
67737;SDS011;54534;43.612;1.572;2022-07-29T06:26:10;11.27;;;2.20;;
67737;SDS011;54534;43.612;1.572;2022-07-29T06:28:35;7.53;;;1.50;;
67737;SDS011;54534;43.612;1.572;2022-07-29T06:31:01;7.53;;;1.90;;
67737;SDS011;54534;43.612;1.572;2022-07-29T06:33:26;10.10;;;2.73;;
67737;SDS011;54534;43.612;1.572;2022-07-29T06:35:52;4.43;;;1.70;;
67737;SDS011;54534;43.612;1.572;2022-07-29T06:38:17;6.97;;;2.03;;
67737;SDS011;54534;43.612;1.572;2022-07-29T06:40:43;5.63;;;1.83;;
67737;SDS011;54534;43.612;1.572;2022-07-29T06:45:56;4.40;;;1.77;;
67737;SDS011;54534;43.612;1.572;2022-07-29T06:48:23;5.13;;;1.67;;
67737;SDS011;54534;43.612;1.572;2022-07-29T06:50:48;3.27;;;1.50;;
67737;SDS011;54534;43.612;1.572;2022-07-29T06:53:14;2.23;;;1.60;;
67737;SDS011;54534;43.612;1.572;2022-07-29T06:55:39;3.80;;;1.30;;
67737;SDS011;54534;43.612;1.572;2022-07-29T06:58:04;4.70;;;1.50;;
67737;SDS011;54534;43.612;1.572;2022-07-29T07:00:30;4.00;;;2.30;;
67737;SDS011;54534;43.612;1.572;2022-07-29T07:02:55;4.77;;;1.60;;
67737;SDS011;54534;43.612;1.572;2022-07-29T07:05:21;3.57;;;1.57;;
67737;SDS011;54534;43.612;1.572;2022-07-29T07:07:46;6.10;;;1.53;;
67737;SDS011;54534;43.612;1.572;2022-07-29T07:10:11;4.43;;;1.70;;
67737;SDS011;54534;43.612;1.572;2022-07-29T07:12:37;3.30;;;1.93;;
67737;SDS011;54534;43.612;1.572;2022-07-29T07:15:02;3.97;;;2.10;;
67737;SDS011;54534;43.612;1.572;2022-07-29T07:17:28;6.10;;;1.63;;
67737;SDS011;54534;43.612;1.572;2022-07-29T07:19:53;4.27;;;1.67;;
67737;SDS011;54534;43.612;1.572;2022-07-29T07:22:19;2.60;;;1.50;;
67737;SDS011;54534;43.612;1.572;2022-07-29T07:24:44;3.43;;;1.50;;
67737;SDS011;54534;43.612;1.572;2022-07-29T07:27:09;4.13;;;1.40;;
67737;SDS011;54534;43.612;1.572;2022-07-29T07:29:35;4.33;;;1.47;;
67737;SDS011;54534;43.612;1.572;2022-07-29T07:32:01;2.80;;;1.30;;
67737;SDS011;54534;43.612;1.572;2022-07-29T07:34:26;4.00;;;1.50;;
67737;SDS011;54534;43.612;1.572;2022-07-29T07:36:52;4.60;;;1.70;;
67737;SDS011;54534;43.612;1.572;2022-07-29T07:39:17;2.60;;;1.30;;
67737;SDS011;54534;43.612;1.572;2022-07-29T07:41:43;2.57;;;1.47;;
67737;SDS011;54534;43.612;1.572;2022-07-29T07:44:08;4.17;;;1.53;;
67737;SDS011;54534;43.612;1.572;2022-07-29T07:46:33;4.73;;;1.60;;
67737;SDS011;54534;43.612;1.572;2022-07-29T07:48:59;3.27;;;1.67;;
67737;SDS011;54534;43.612;1.572;2022-07-29T07:51:24;3.23;;;1.50;;
67737;SDS011;54534;43.612;1.572;2022-07-29T07:53:49;3.10;;;1.20;;
67737;SDS011;54534;43.612;1.572;2022-07-29T07:56:15;2.57;;;1.27;;
67737;SDS011;54534;43.612;1.572;2022-07-29T07:58:41;1.87;;;1.13;;
67737;SDS011;54534;43.612;1.572;2022-07-29T08:01:07;1.37;;;1.00;;
67737;SDS011;54534;43.612;1.572;2022-07-29T08:03:34;4.60;;;1.23;;
67737;SDS011;54534;43.612;1.572;2022-07-29T08:05:59;3.53;;;1.60;;
67737;SDS011;54534;43.612;1.572;2022-07-29T08:08:25;1.73;;;0.93;;
67737;SDS011;54534;43.612;1.572;2022-07-29T08:10:50;1.87;;;1.10;;
67737;SDS011;54534;43.612;1.572;2022-07-29T08:13:19;1.47;;;1.20;;
67737;SDS011;54534;43.612;1.572;2022-07-29T08:15:45;2.43;;;1.33;;
67737;SDS011;54534;43.612;1.572;2022-07-29T08:18:11;3.30;;;1.30;;
67737;SDS011;54534;43.612;1.572;2022-07-29T08:20:37;2.10;;;1.10;;
67737;SDS011;54534;43.612;1.572;2022-07-29T08:23:04;3.23;;;1.40;;
67737;SDS011;54534;43.612;1.572;2022-07-29T08:25:32;4.90;;;1.20;;
67737;SDS011;54534;43.612;1.572;2022-07-29T08:27:58;4.37;;;1.37;;
67737;SDS011;54534;43.612;1.572;2022-07-29T08:30:23;1.73;;;1.03;;
67737;SDS011;54534;43.612;1.572;2022-07-29T08:32:49;3.33;;;1.37;;
67737;SDS011;54534;43.612;1.572;2022-07-29T08:35:17;10.23;;;1.57;;
67737;SDS011;54534;43.612;1.572;2022-07-29T08:37:46;2.65;;;1.30;;
67737;SDS011;54534;43.612;1.572;2022-07-29T08:40:12;1.67;;;1.10;;
67737;SDS011;54534;43.612;1.572;2022-07-29T08:42:39;2.10;;;1.10;;
67737;SDS011;54534;43.612;1.572;2022-07-29T08:45:04;2.23;;;1.07;;
67737;SDS011;54534;43.612;1.572;2022-07-29T08:47:31;1.60;;;1.50;;
67737;SDS011;54534;43.612;1.572;2022-07-29T08:49:57;1.53;;;1.17;;
67737;SDS011;54534;43.612;1.572;2022-07-29T08:52:24;3.20;;;1.20;;
67737;SDS011;54534;43.612;1.572;2022-07-29T08:54:51;4.30;;;1.17;;
67737;SDS011;54534;43.612;1.572;2022-07-29T08:57:17;1.43;;;1.17;;
67737;SDS011;54534;43.612;1.572;2022-07-29T08:59:44;1.90;;;1.00;;
67737;SDS011;54534;43.612;1.572;2022-07-29T09:02:16;1.60;;;0.97;;
67737;SDS011;54534;43.612;1.572;2022-07-29T09:04:44;1.93;;;1.00;;
67737;SDS011;54534;43.612;1.572;2022-07-29T09:07:10;2.60;;;1.23;;
67737;SDS011;54534;43.612;1.572;2022-07-29T09:09:39;2.72;;;1.27;;
67737;SDS011;54534;43.612;1.572;2022-07-29T09:12:05;1.03;;;0.87;;
67737;SDS011;54534;43.612;1.572;2022-07-29T09:14:33;1.73;;;1.00;;
67737;SDS011;54534;43.612;1.572;2022-07-29T09:16:59;2.70;;;1.27;;
67737;SDS011;54534;43.612;1.572;2022-07-29T09:19:26;2.00;;;1.13;;
67737;SDS011;54534;43.612;1.572;2022-07-29T09:21:57;0.83;;;0.83;;
67737;SDS011;54534;43.612;1.572;2022-07-29T09:24:25;2.47;;;1.17;;
67737;SDS011;54534;43.612;1.572;2022-07-29T09:26:52;2.03;;;1.00;;
67737;SDS011;54534;43.612;1.572;2022-07-29T09:29:19;1.23;;;0.90;;
67737;SDS011;54534;43.612;1.572;2022-07-29T09:31:47;3.60;;;0.85;;
67737;SDS011;54534;43.612;1.572;2022-07-29T09:34:15;1.87;;;1.20;;
67737;SDS011;54534;43.612;1.572;2022-07-29T09:36:47;1.50;;;0.97;;
67737;SDS011;54534;43.612;1.572;2022-07-29T09:39:14;2.73;;;0.90;;
67737;SDS011;54534;43.612;1.572;2022-07-29T09:41:51;1.97;;;1.10;;
67737;SDS011;54534;43.612;1.572;2022-07-29T09:44:18;1.37;;;1.20;;
67737;SDS011;54534;43.612;1.572;2022-07-29T09:46:58;1.30;;;1.10;;
67737;SDS011;54534;43.612;1.572;2022-07-29T09:49:31;1.30;;;1.00;;
67737;SDS011;54534;43.612;1.572;2022-07-29T09:52:04;0.93;;;0.83;;
67737;SDS011;54534;43.612;1.572;2022-07-29T09:54:31;1.03;;;0.83;;
67737;SDS011;54534;43.612;1.572;2022-07-29T09:57:02;1.00;;;0.90;;
67737;SDS011;54534;43.612;1.572;2022-07-29T09:59:29;2.40;;;0.90;;
67737;SDS011;54534;43.612;1.572;2022-07-29T10:01:55;1.37;;;0.80;;
67737;SDS011;54534;43.612;1.572;2022-07-29T10:04:21;1.90;;;0.97;;
67737;SDS011;54534;43.612;1.572;2022-07-29T10:09:22;1.73;;;0.93;;
67737;SDS011;54534;43.612;1.572;2022-07-29T10:14:30;1.73;;;1.10;;
67737;SDS011;54534;43.612;1.572;2022-07-29T10:16:57;1.13;;;0.93;;
67737;SDS011;54534;43.612;1.572;2022-07-29T10:19:25;1.60;;;1.13;;
67737;SDS011;54534;43.612;1.572;2022-07-29T10:21:51;1.60;;;0.90;;
67737;SDS011;54534;43.612;1.572;2022-07-29T10:24:17;1.20;;;1.10;;
67737;SDS011;54534;43.612;1.572;2022-07-29T10:26:43;1.57;;;1.07;;
67737;SDS011;54534;43.612;1.572;2022-07-29T10:29:11;1.53;;;1.10;;
67737;SDS011;54534;43.612;1.572;2022-07-29T10:31:42;1.67;;;1.00;;
67737;SDS011;54534;43.612;1.572;2022-07-29T10:34:21;1.87;;;1.00;;
67737;SDS011;54534;43.612;1.572;2022-07-29T10:37:18;1.43;;;1.13;;
67737;SDS011;54534;43.612;1.572;2022-07-29T10:43:05;1.57;;;0.93;;
67737;SDS011;54534;43.612;1.572;2022-07-29T10:45:42;1.07;;;0.90;;
67737;SDS011;54534;43.612;1.572;2022-07-29T10:48:09;1.33;;;0.93;;
67737;SDS011;54534;43.612;1.572;2022-07-29T10:50:54;1.37;;;0.90;;
67737;SDS011;54534;43.612;1.572;2022-07-29T10:53:47;1.93;;;0.90;;
67737;SDS011;54534;43.612;1.572;2022-07-29T10:56:31;2.50;;;1.00;;
67737;SDS011;54534;43.612;1.572;2022-07-29T11:01:45;1.03;;;0.80;;
67737;SDS011;54534;43.612;1.572;2022-07-29T11:07:10;0.90;;;0.80;;
67737;SDS011;54534;43.612;1.572;2022-07-29T11:09:38;1.60;;;0.90;;
67737;SDS011;54534;43.612;1.572;2022-07-29T11:12:04;0.97;;;0.90;;
67737;SDS011;54534;43.612;1.572;2022-07-29T11:15:00;1.90;;;1.00;;
67737;SDS011;54534;43.612;1.572;2022-07-29T11:17:27;1.13;;;0.90;;
67737;SDS011;54534;43.612;1.572;2022-07-29T11:22:58;1.13;;;0.80;;
67737;SDS011;54534;43.612;1.572;2022-07-29T11:25:24;0.80;;;0.80;;
67737;SDS011;54534;43.612;1.572;2022-07-29T11:27:51;1.17;;;0.90;;
67737;SDS011;54534;43.612;1.572;2022-07-29T11:30:52;1.53;;;1.00;;
67737;SDS011;54534;43.612;1.572;2022-07-29T11:33:28;0.97;;;0.70;;
67737;SDS011;54534;43.612;1.572;2022-07-29T11:36:27;1.43;;;0.90;;
67737;SDS011;54534;43.612;1.572;2022-07-29T11:38:46;1.10;;;0.97;;
67737;SDS011;54534;43.612;1.572;2022-07-29T11:43:45;1.17;;;1.07;;
67737;SDS011;54534;43.612;1.572;2022-07-29T11:46:12;1.27;;;0.93;;
67737;SDS011;54534;43.612;1.572;2022-07-29T11:48:41;1.03;;;0.90;;
67737;SDS011;54534;43.612;1.572;2022-07-29T11:53:36;1.47;;;0.80;;
67737;SDS011;54534;43.612;1.572;2022-07-29T11:56:03;1.13;;;0.90;;
67737;SDS011;54534;43.612;1.572;2022-07-29T11:58:29;1.03;;;0.93;;
67737;SDS011;54534;43.612;1.572;2022-07-29T12:00:55;1.97;;;1.00;;
67737;SDS011;54534;43.612;1.572;2022-07-29T12:03:25;1.63;;;1.10;;
67737;SDS011;54534;43.612;1.572;2022-07-29T12:05:51;1.47;;;0.80;;
67737;SDS011;54534;43.612;1.572;2022-07-29T12:08:18;1.27;;;0.80;;
67737;SDS011;54534;43.612;1.572;2022-07-29T12:10:50;1.00;;;0.90;;
67737;SDS011;54534;43.612;1.572;2022-07-29T12:13:18;1.60;;;0.98;;
67737;SDS011;54534;43.612;1.572;2022-07-29T12:15:52;1.08;;;0.98;;
67737;SDS011;54534;43.612;1.572;2022-07-29T12:18:19;1.00;;;0.80;;
67737;SDS011;54534;43.612;1.572;2022-07-29T12:20:48;1.55;;;1.05;;
67737;SDS011;54534;43.612;1.572;2022-07-29T12:23:14;1.13;;;1.03;;
67737;SDS011;54534;43.612;1.572;2022-07-29T12:25:41;1.30;;;1.17;;
67737;SDS011;54534;43.612;1.572;2022-07-29T12:28:12;1.17;;;0.80;;
67737;SDS011;54534;43.612;1.572;2022-07-29T12:35:42;1.83;;;0.90;;
67737;SDS011;54534;43.612;1.572;2022-07-29T12:38:11;2.58;;;1.20;;
67737;SDS011;54534;43.612;1.572;2022-07-29T12:40:38;0.80;;;0.80;;
67737;SDS011;54534;43.612;1.572;2022-07-29T12:43:17;1.30;;;0.80;;
67737;SDS011;54534;43.612;1.572;2022-07-29T12:45:45;0.80;;;0.80;;
67737;SDS011;54534;43.612;1.572;2022-07-29T12:48:12;1.53;;;1.00;;
67737;SDS011;54534;43.612;1.572;2022-07-29T12:53:23;1.40;;;0.97;;
67737;SDS011;54534;43.612;1.572;2022-07-29T12:55:50;1.03;;;0.93;;
67737;SDS011;54534;43.612;1.572;2022-07-29T13:03:41;1.20;;;0.87;;
67737;SDS011;54534;43.612;1.572;2022-07-29T13:09:11;1.30;;;0.80;;
67737;SDS011;54534;43.612;1.572;2022-07-29T13:11:40;2.43;;;0.80;;
67737;SDS011;54534;43.612;1.572;2022-07-29T13:14:08;1.35;;;0.90;;
67737;SDS011;54534;43.612;1.572;2022-07-29T13:16:34;1.00;;;0.87;;
67737;SDS011;54534;43.612;1.572;2022-07-29T13:19:09;0.80;;;0.80;;
67737;SDS011;54534;43.612;1.572;2022-07-29T13:21:36;1.03;;;0.93;;
67737;SDS011;54534;43.612;1.572;2022-07-29T13:24:04;0.80;;;0.80;;
67737;SDS011;54534;43.612;1.572;2022-07-29T13:26:31;0.80;;;0.80;;
67737;SDS011;54534;43.612;1.572;2022-07-29T13:28:57;1.50;;;1.10;;
67737;SDS011;54534;43.612;1.572;2022-07-29T13:31:22;0.90;;;0.90;;
67737;SDS011;54534;43.612;1.572;2022-07-29T13:33:48;0.90;;;0.90;;
67737;SDS011;54534;43.612;1.572;2022-07-29T13:36:13;0.87;;;0.87;;
67737;SDS011;54534;43.612;1.572;2022-07-29T13:38:38;1.27;;;1.00;;
67737;SDS011;54534;43.612;1.572;2022-07-29T13:41:04;0.87;;;0.87;;
67737;SDS011;54534;43.612;1.572;2022-07-29T13:43:30;1.20;;;1.00;;
67737;SDS011;54534;43.612;1.572;2022-07-29T13:45:55;0.93;;;0.80;;
67737;SDS011;54534;43.612;1.572;2022-07-29T13:48:21;0.80;;;0.80;;
67737;SDS011;54534;43.612;1.572;2022-07-29T13:50:46;0.80;;;0.80;;
67737;SDS011;54534;43.612;1.572;2022-07-29T13:53:12;0.70;;;0.70;;
67737;SDS011;54534;43.612;1.572;2022-07-29T13:55:38;0.63;;;0.60;;
67737;SDS011;54534;43.612;1.572;2022-07-29T13:58:04;0.70;;;0.70;;
67737;SDS011;54534;43.612;1.572;2022-07-29T14:00:29;1.13;;;0.90;;
67737;SDS011;54534;43.612;1.572;2022-07-29T14:02:55;1.07;;;0.70;;
67737;SDS011;54534;43.612;1.572;2022-07-29T14:05:20;1.60;;;0.97;;
67737;SDS011;54534;43.612;1.572;2022-07-29T14:07:45;0.90;;;0.90;;
67737;SDS011;54534;43.612;1.572;2022-07-29T14:10:11;0.87;;;0.80;;
67737;SDS011;54534;43.612;1.572;2022-07-29T14:12:37;1.00;;;1.00;;
67737;SDS011;54534;43.612;1.572;2022-07-29T14:15:03;1.70;;;0.77;;
67737;SDS011;54534;43.612;1.572;2022-07-29T14:17:29;1.17;;;1.00;;
67737;SDS011;54534;43.612;1.572;2022-07-29T14:19:54;1.10;;;1.00;;
67737;SDS011;54534;43.612;1.572;2022-07-29T14:22:19;0.77;;;0.77;;
67737;SDS011;54534;43.612;1.572;2022-07-29T14:24:45;0.87;;;0.87;;
67737;SDS011;54534;43.612;1.572;2022-07-29T14:27:10;1.03;;;0.93;;
67737;SDS011;54534;43.612;1.572;2022-07-29T14:29:36;1.73;;;1.27;;
67737;SDS011;54534;43.612;1.572;2022-07-29T14:32:02;1.03;;;0.80;;
67737;SDS011;54534;43.612;1.572;2022-07-29T14:34:27;1.00;;;0.90;;
67737;SDS011;54534;43.612;1.572;2022-07-29T14:36:53;0.83;;;0.83;;
67737;SDS011;54534;43.612;1.572;2022-07-29T14:39:21;1.20;;;0.80;;
67737;SDS011;54534;43.612;1.572;2022-07-29T14:41:48;1.40;;;1.03;;
67737;SDS011;54534;43.612;1.572;2022-07-29T14:44:13;1.13;;;0.90;;
67737;SDS011;54534;43.612;1.572;2022-07-29T14:46:39;1.30;;;1.00;;
67737;SDS011;54534;43.612;1.572;2022-07-29T14:49:04;1.10;;;1.00;;
67737;SDS011;54534;43.612;1.572;2022-07-29T14:51:30;1.20;;;1.10;;
67737;SDS011;54534;43.612;1.572;2022-07-29T14:53:56;1.40;;;0.97;;
67737;SDS011;54534;43.612;1.572;2022-07-29T14:56:22;1.10;;;1.00;;
67737;SDS011;54534;43.612;1.572;2022-07-29T14:58:48;0.77;;;0.77;;
67737;SDS011;54534;43.612;1.572;2022-07-29T15:01:13;1.27;;;0.90;;
67737;SDS011;54534;43.612;1.572;2022-07-29T15:03:39;1.77;;;1.00;;
67737;SDS011;54534;43.612;1.572;2022-07-29T15:06:04;2.00;;;1.10;;
67737;SDS011;54534;43.612;1.572;2022-07-29T15:08:30;1.00;;;0.83;;
67737;SDS011;54534;43.612;1.572;2022-07-29T15:10:56;0.63;;;0.63;;
67737;SDS011;54534;43.612;1.572;2022-07-29T15:13:24;1.13;;;1.03;;
67737;SDS011;54534;43.612;1.572;2022-07-29T15:15:50;1.60;;;0.90;;
67737;SDS011;54534;43.612;1.572;2022-07-29T15:18:16;0.80;;;0.80;;
67737;SDS011;54534;43.612;1.572;2022-07-29T15:20:42;0.90;;;0.90;;
67737;SDS011;54534;43.612;1.572;2022-07-29T15:23:07;0.93;;;0.80;;
67737;SDS011;54534;43.612;1.572;2022-07-29T15:25:34;1.83;;;0.90;;
67737;SDS011;54534;43.612;1.572;2022-07-29T15:28:01;1.30;;;1.10;;
67737;SDS011;54534;43.612;1.572;2022-07-29T15:30:32;1.33;;;1.00;;
67737;SDS011;54534;43.612;1.572;2022-07-29T15:33:00;1.37;;;0.80;;
67737;SDS011;54534;43.612;1.572;2022-07-29T15:35:26;0.70;;;0.70;;
67737;SDS011;54534;43.612;1.572;2022-07-29T15:37:52;0.80;;;0.80;;
67737;SDS011;54534;43.612;1.572;2022-07-29T15:40:17;1.17;;;0.90;;
67737;SDS011;54534;43.612;1.572;2022-07-29T15:42:42;1.27;;;1.00;;
67737;SDS011;54534;43.612;1.572;2022-07-29T15:45:08;1.13;;;0.87;;
67737;SDS011;54534;43.612;1.572;2022-07-29T15:47:37;1.33;;;1.00;;